Time;durP1;ratioP1;P1;durP2;ratioP2;P2;SDS_P1;SDS_P2;PMS_P1;PMS_P2;Temp;Humidity;BMP_temperature;BMP_pressure;BME280_temperature;BME280_humidity;BME280_pressure;Samples;Min_cycle;Max_cycle;Signal;HPM_P1;HPM_P2
2021/03/14 00:00:56;;;;;;;4.63;0.60;;;5.40;99.90;;;;;;6159023;23;20057;-87
2021/03/14 00:03:34;;;;;;;2.55;0.63;;;5.30;99.90;;;;;;6173132;23;20015;-87
2021/03/14 00:06:04;;;;;;;3.35;0.70;;;5.30;99.90;;;;;;6169785;23;20009;-87
2021/03/14 00:08:49;;;;;;;8.85;0.68;;;5.30;99.90;;;;;;6185102;23;20049;-87
2021/03/14 00:11:22;;;;;;;1.00;0.60;;;5.30;99.90;;;;;;6184939;23;20064;-87
2021/03/14 00:16:54;;;;;;;1.83;0.40;;;5.30;99.90;;;;;;6149512;23;20075;-87
2021/03/14 00:22:31;;;;;;;0.60;0.30;;;5.30;99.90;;;;;;6205228;23;20013;-85
2021/03/14 00:25:05;;;;;;;0.30;0.13;;;5.30;99.90;;;;;;6188814;23;20060;-86
2021/03/14 00:27:39;;;;;;;2.28;0.35;;;5.30;99.90;;;;;;6139294;23;20014;-87
2021/03/14 00:30:17;;;;;;;2.85;0.68;;;5.30;99.90;;;;;;6142737;22;20008;-83
2021/03/14 00:32:52;;;;;;;3.10;0.60;;;5.10;99.90;;;;;;6249165;22;20103;-85
2021/03/14 00:38:24;;;;;;;6.50;0.80;;;5.10;99.90;;;;;;6228123;22;20005;-88
2021/03/14 00:40:57;;;;;;;;;;;5.10;99.90;;;;;;6165519;23;20065;-86
2021/03/14 00:43:30;;;;;;;0.77;0.40;;;5.10;99.90;;;;;;6157320;23;19920;-86
2021/03/14 00:49:07;;;;;;;1.45;0.73;;;5.00;99.90;;;;;;6214778;23;20062;-85
2021/03/14 00:51:39;;;;;;;5.60;2.05;;;5.10;99.90;;;;;;6211548;23;20024;-85
2021/03/14 00:54:16;;;;;;;2.08;0.75;;;5.10;99.90;;;;;;6188325;23;20069;-79
2021/03/14 00:56:49;;;;;;;3.80;0.60;;;5.10;99.90;;;;;;6156841;23;20025;-87
2021/03/14 01:02:19;;;;;;;5.13;0.80;;;5.10;99.90;;;;;;6176513;23;20061;-85
2021/03/14 01:04:53;;;;;;;4.20;1.08;;;5.10;99.90;;;;;;6158254;23;20055;-86
2021/03/14 01:07:25;;;;;;;5.07;1.10;;;5.20;99.90;;;;;;6121887;23;825641;-85
2021/03/14 01:12:37;;;;;;;4.90;1.23;;;5.20;99.90;;;;;;6196875;22;20031;-86
2021/03/14 01:15:16;;;;;;;2.20;0.50;;;5.20;99.90;;;;;;6213310;23;20049;-84
2021/03/14 01:17:57;;;;;;;4.82;1.27;;;5.20;99.90;;;;;;6197249;22;20077;-80
2021/03/14 01:20:25;;;;;;;5.55;1.25;;;5.20;99.90;;;;;;6218988;22;20016;-86
2021/03/14 01:28:51;;;;;;;4.53;0.88;;;5.30;99.90;;;;;;5152040;27;20353;-88
2021/03/14 01:31:19;;;;;;;4.57;0.60;;;5.30;99.90;;;;;;5126819;22;20057;-89
2021/03/14 01:33:47;;;;;;;3.88;0.65;;;5.30;99.90;;;;;;5016042;28;20040;-87
2021/03/14 01:36:22;;;;;;;2.28;0.63;;;5.30;99.90;;;;;;5032382;28;20056;-88
2021/03/14 01:39:04;;;;;;;4.32;0.80;;;5.30;99.90;;;;;;5045967;28;20047;-87
2021/03/14 01:41:39;;;;;;;4.22;0.70;;;5.40;99.90;;;;;;5103162;28;20040;-88
2021/03/14 01:44:10;;;;;;;2.42;0.80;;;5.30;99.90;;;;;;5119229;27;20032;-88
2021/03/14 01:46:38;;;;;;;6.45;0.75;;;5.40;99.90;;;;;;5119248;27;20040;-89
2021/03/14 01:49:08;;;;;;;3.10;1.13;;;5.20;99.90;;;;;;5118756;28;20060;-88
2021/03/14 01:51:41;;;;;;;3.60;0.80;;;5.30;99.90;;;;;;5135819;27;20284;-88
2021/03/14 01:54:12;;;;;;;3.50;0.88;;;5.20;99.90;;;;;;5118835;28;20043;-89
2021/03/14 02:44:44;;;;;;;6.82;1.65;;;5.10;99.90;;;;;;5937883;23;20031;-88
2021/03/14 05:21:29;;;;;;;6.25;1.40;;;4.60;99.90;;;;;;5872314;23;20028;-82
2021/03/14 07:13:28;;;;;;;8.45;2.80;;;5.60;99.90;;;;;;5690751;23;20055;-92
2021/03/14 07:24:32;;;;;;;5.93;2.67;;;5.70;99.90;;;;;;5164540;23;20037;-89
2021/03/14 07:29:59;;;;;;;2.60;1.30;;;5.80;99.90;;;;;;5540011;23;21014;-87
2021/03/14 07:32:29;;;;;;;5.55;2.17;;;5.90;99.90;;;;;;4889748;29;20033;-89
2021/03/14 07:44:01;;;;;;;3.60;1.52;;;5.80;99.90;;;;;;5289351;23;20048;-89
2021/03/14 07:46:32;;;;;;;4.90;2.53;;;5.90;99.90;;;;;;5181145;23;20064;-90
2021/03/14 07:49:05;;;;;;;6.43;2.10;;;5.90;99.90;;;;;;4909825;29;20064;-90
2021/03/14 07:51:38;;;;;;;7.35;3.03;;;6.00;99.90;;;;;;5235115;23;20060;-89
2021/03/14 07:57:04;;;;;;;7.22;3.15;;;6.00;99.90;;;;;;4935696;23;20060;-94
2021/03/14 07:59:35;;;;;;;4.25;1.88;;;6.10;99.90;;;;;;4900265;29;20053;-90
2021/03/14 08:02:30;;;;;;;3.63;2.10;;;6.10;99.90;;;;;;5017210;23;20052;-89
2021/03/14 08:05:00;;;;;;;6.35;2.58;;;6.10;99.90;;;;;;4872534;29;20068;-92
2021/03/14 08:07:51;;;;;;;9.00;2.58;;;6.20;99.90;;;;;;5407153;23;20048;-90
2021/03/14 08:10:39;;;;;;;3.80;2.28;;;6.10;99.90;;;;;;4894088;29;20057;-91
2021/03/14 08:13:16;;;;;;;10.48;2.78;;;6.20;99.90;;;;;;5000495;23;20056;-89
2021/03/14 08:16:01;;;;;;;11.65;4.03;;;6.20;99.90;;;;;;5430213;23;20062;-92
2021/03/14 08:18:41;;;;;;;7.65;2.75;;;6.20;99.90;;;;;;5032994;23;20060;-92
2021/03/14 08:21:36;;;;;;;8.25;2.92;;;6.20;99.90;;;;;;4889668;29;20056;-94
2021/03/14 08:24:10;;;;;;;4.47;1.25;;;6.20;99.90;;;;;;4901173;29;20463;-92
2021/03/14 08:26:42;;;;;;;7.07;1.92;;;6.30;99.90;;;;;;4909118;29;20052;-91
2021/03/14 08:29:18;;;;;;;6.20;3.08;;;6.30;99.90;;;;;;4909549;29;20073;-92
2021/03/14 08:31:57;;;;;;;6.90;2.58;;;6.30;99.90;;;;;;4902845;29;20068;-94
2021/03/14 08:34:45;;;;;;;6.57;2.63;;;6.50;99.90;;;;;;4890961;29;20072;-93
2021/03/14 08:37:22;;;;;;;13.43;2.90;;;6.60;99.90;;;;;;4908428;29;20064;-90
2021/03/14 08:39:59;;;;;;;12.82;3.03;;;6.50;99.90;;;;;;4889850;29;20059;-96
2021/03/14 08:42:54;;;;;;;5.10;2.20;;;6.60;99.90;;;;;;4905896;29;20063;-92
2021/03/14 08:45:27;;;;;;;10.23;2.60;;;6.70;99.90;;;;;;4889546;29;20072;-95
2021/03/14 08:48:17;;;;;;;6.82;2.97;;;6.70;99.90;;;;;;4901984;29;20052;-96
2021/03/14 08:50:53;;;;;;;9.02;2.92;;;6.80;99.90;;;;;;4891841;29;20059;-92
2021/03/14 08:53:27;;;;;;;9.73;2.58;;;6.80;99.90;;;;;;4889465;29;20075;-95
2021/03/14 08:56:13;;;;;;;3.83;2.20;;;6.80;99.90;;;;;;4891258;29;20064;-94
2021/03/14 08:59:05;;;;;;;9.63;2.90;;;6.80;99.90;;;;;;4887636;29;20059;-94
2021/03/14 09:01:34;;;;;;;6.97;3.13;;;6.80;99.90;;;;;;4903196;29;20063;-94
2021/03/14 09:04:14;;;;;;;9.13;2.47;;;6.70;99.90;;;;;;4886459;29;20064;-95
2021/03/14 09:06:47;;;;;;;5.85;1.70;;;6.70;99.90;;;;;;4871313;29;20060;-95
2021/03/14 09:09:21;;;;;;;6.25;2.60;;;6.80;99.90;;;;;;4885895;29;20048;-95
2021/03/14 09:11:58;;;;;;;6.07;2.88;;;6.90;99.90;;;;;;4886201;29;20367;-94
2021/03/14 09:14:47;;;;;;;7.78;3.10;;;7.00;99.90;;;;;;4999629;23;20528;-92
2021/03/14 09:20:13;;;;;;;6.90;3.60;;;6.70;99.90;;;;;;5172870;23;20056;-95
2021/03/14 09:22:45;;;;;;;7.25;2.42;;;6.70;99.90;;;;;;4892787;29;20052;-94
2021/03/14 09:25:25;;;;;;;4.95;2.47;;;6.80;99.90;;;;;;4895467;29;20060;-89
2021/03/14 09:27:53;;;;;;;4.05;2.30;;;6.90;99.90;;;;;;4898701;29;20067;-91
2021/03/14 09:30:38;;;;;;;7.05;3.00;;;6.80;99.90;;;;;;4885475;29;20066;-94
2021/03/14 09:33:08;;;;;;;6.10;2.90;;;6.80;99.90;;;;;;4910635;29;20053;-96
2021/03/14 09:35:56;;;;;;;6.65;3.42;;;6.70;99.90;;;;;;4895664;29;20470;-93
2021/03/14 09:38:40;;;;;;;5.68;2.83;;;6.70;99.90;;;;;;4907576;29;20407;-93
2021/03/14 09:41:20;;;;;;;10.43;3.28;;;6.70;99.90;;;;;;4901298;29;20075;-96
2021/03/14 09:43:52;;;;;;;7.60;3.33;;;6.70;99.90;;;;;;4872382;29;20071;-94
2021/03/14 09:46:26;;;;;;;7.28;3.35;;;6.80;99.90;;;;;;4886736;29;20557;-95
2021/03/14 09:49:20;;;;;;;7.25;3.38;;;6.80;99.90;;;;;;4901323;29;20127;-95
2021/03/14 09:52:09;;;;;;;10.02;3.88;;;6.80;99.90;;;;;;4906920;29;20056;-96
2021/03/14 09:54:39;;;;;;;10.07;3.60;;;6.70;99.90;;;;;;4894108;29;20064;-96
2021/03/14 09:57:09;;;;;;;8.93;3.35;;;6.90;99.90;;;;;;4890348;29;20130;-96
2021/03/14 09:59:52;;;;;;;7.97;3.60;;;7.00;99.90;;;;;;4907338;29;20052;-82
2021/03/14 10:02:37;;;;;;;4.43;2.55;;;7.10;99.90;;;;;;4921690;29;20055;-86
2021/03/14 10:05:31;;;;;;;8.57;3.80;;;7.10;99.90;;;;;;4909145;29;20435;-85
2021/03/14 10:08:05;;;;;;;9.80;3.83;;;7.00;99.90;;;;;;4923292;29;20040;-85
2021/03/14 10:10:46;;;;;;;10.25;3.22;;;7.10;99.90;;;;;;4907414;29;20036;-84
2021/03/14 10:13:18;;;;;;;6.88;3.50;;;6.80;99.90;;;;;;4905560;29;20060;-84
2021/03/14 10:16:08;;;;;;;6.95;3.63;;;6.60;99.90;;;;;;4922032;29;20060;-85
2021/03/14 10:19:05;;;;;;;9.02;4.00;;;6.30;99.90;;;;;;4921719;29;20057;-84
2021/03/14 10:21:43;;;;;;;10.15;4.78;;;6.50;99.90;;;;;;4903387;29;20064;-85
2021/03/14 10:24:31;;;;;;;11.20;4.00;;;6.60;99.90;;;;;;4905388;29;20063;-84
2021/03/14 10:27:26;;;;;;;9.80;4.03;;;6.80;99.90;;;;;;4922341;29;20048;-85
2021/03/14 10:30:26;;;;;;;7.22;3.60;;;6.90;99.90;;;;;;4907900;29;20041;-85
2021/03/14 10:33:42;;;;;;;9.20;3.15;;;7.00;99.90;;;;;;4906702;29;20062;-83
2021/03/14 10:36:24;;;;;;;10.45;4.03;;;7.10;99.90;;;;;;4921946;29;20067;-85
2021/03/14 10:41:55;;;;;;;7.05;3.70;;;7.10;99.90;;;;;;4906818;29;20053;-86
2021/03/14 10:44:38;;;;;;;10.10;3.50;;;7.10;99.90;;;;;;4905990;29;20056;-85
2021/03/14 10:47:29;;;;;;;8.65;4.00;;;7.10;99.90;;;;;;4920913;29;20053;-84
2021/03/14 10:50:28;;;;;;;7.40;3.38;;;7.00;99.90;;;;;;4907389;29;20059;-87
2021/03/14 10:53:15;;;;;;;7.07;3.65;;;6.90;99.90;;;;;;4906987;29;20060;-85
2021/03/14 10:55:50;;;;;;;5.18;3.05;;;6.80;99.90;;;;;;4906587;29;20056;-84
2021/03/14 10:58:39;;;;;;;9.30;4.25;;;6.80;99.90;;;;;;4907938;29;20055;-85
2021/03/14 11:01:59;;;;;;;12.20;1.98;;;6.60;99.90;;;;;;4900699;29;20037;-85
2021/03/14 11:04:54;;;;;;;7.05;3.15;;;6.70;99.90;;;;;;4920513;29;20063;-85
2021/03/14 11:07:27;;;;;;;8.35;3.78;;;6.90;99.90;;;;;;4922078;29;20056;-86
2021/03/14 11:10:09;;;;;;;5.72;2.92;;;7.10;99.90;;;;;;4907412;29;20037;-86
2021/03/14 11:15:39;;;;;;;7.18;3.40;;;7.30;99.90;;;;;;4905780;29;20057;-86
2021/03/14 11:18:34;;;;;;;7.20;3.05;;;7.70;99.90;;;;;;4906634;29;20056;-86
2021/03/14 11:21:19;;;;;;;6.22;3.20;;;8.00;99.90;;;;;;4921511;29;20054;-87
2021/03/14 11:23:53;;;;;;;8.45;3.40;;;7.70;99.90;;;;;;4907851;29;20044;-85
2021/03/14 11:26:23;;;;;;;6.72;3.13;;;7.80;99.90;;;;;;4907696;29;20043;-84
2021/03/14 11:28:51;;;;;;;9.32;3.85;;;7.90;99.90;;;;;;5387794;23;20051;-85
2021/03/14 11:31:29;;;;;;;9.43;3.40;;;7.70;99.90;;;;;;4907520;29;20049;-86
2021/03/14 11:34:03;;;;;;;10.70;3.50;;;7.60;99.90;;;;;;4923267;29;20054;-89
2021/03/14 11:42:47;;;;;;;6.82;2.80;;;7.50;99.90;;;;;;4902674;29;20029;-87
2021/03/14 11:45:32;;;;;;;8.82;3.75;;;7.50;99.90;;;;;;4904140;29;20037;-87
2021/03/14 11:48:04;;;;;;;10.07;3.42;;;7.60;99.90;;;;;;4903623;29;20041;-87
2021/03/14 11:51:47;;;;;;;8.80;3.00;;;7.60;99.90;;;;;;4866544;29;20058;-86
2021/03/14 11:54:44;;;;;;;;;;;;;;;;;;;;;
2021/03/14 11:57:37;;;;;;;6.90;3.28;;;8.30;99.90;;;;;;4869055;29;20048;-86
2021/03/14 12:00:13;;;;;;;;;;;8.60;99.90;;;;;;5158363;23;20064;-87
2021/03/14 12:02:48;;;;;;;6.10;2.65;;;8.70;99.90;;;;;;4885052;29;19924;-87
2021/03/14 12:08:20;;;;;;;9.40;2.80;;;8.90;99.90;;;;;;4886220;29;20040;-87
2021/03/14 12:10:52;;;;;;;10.20;2.83;;;8.70;99.90;;;;;;4902382;29;20056;-86
2021/03/14 12:13:22;;;;;;;6.85;2.85;;;8.60;99.90;;;;;;4918400;29;20080;-86
2021/03/14 12:15:58;;;;;;;10.10;3.10;;;8.40;99.90;;;;;;4902996;29;20068;-86
2021/03/14 12:18:33;;;;;;;11.68;3.13;;;8.40;99.90;;;;;;4918069;29;20036;-87
2021/03/14 12:21:08;;;;;;;6.45;3.00;;;8.30;99.90;;;;;;4888477;29;20041;-86
2021/03/14 12:23:46;;;;;;;5.70;2.70;;;8.40;99.90;;;;;;4903323;29;20057;-85
2021/03/14 12:26:45;;;;;;;11.52;3.05;;;8.50;99.90;;;;;;4900974;29;20039;-86
2021/03/14 12:29:34;;;;;;;7.22;2.97;;;8.60;99.90;;;;;;4897275;29;20053;-83
2021/03/14 12:32:15;;;;;;;7.70;2.70;;;8.50;99.90;;;;;;4895867;29;20056;-80
2021/03/14 12:34:47;;;;;;;7.72;2.75;;;8.40;99.90;;;;;;4895651;29;20053;-80
2021/03/14 12:37:21;;;;;;;8.57;2.72;;;8.20;99.90;;;;;;5151218;23;20986;-83
2021/03/14 12:40:08;;;;;;;4.78;2.30;;;8.10;99.90;;;;;;4902946;29;20048;-81
2021/03/14 12:42:39;;;;;;;4.57;2.30;;;8.20;99.90;;;;;;4897743;29;20037;-82
2021/03/14 12:45:26;;;;;;;6.60;3.03;;;8.40;99.90;;;;;;4882704;29;20065;-85
2021/03/14 12:48:01;;;;;;;6.55;2.80;;;8.60;99.90;;;;;;4854797;29;20036;-85
2021/03/14 12:50:34;;;;;;;7.72;2.83;;;8.70;99.90;;;;;;4869187;29;20053;-83
2021/03/14 12:53:22;;;;;;;9.10;3.42;;;8.60;99.80;;;;;;4871870;29;20034;-83
2021/03/14 12:56:06;;;;;;;7.22;2.58;;;8.50;99.90;;;;;;4870116;29;20041;-84
2021/03/14 12:59:06;;;;;;;9.52;2.28;;;8.40;99.90;;;;;;4883136;29;20047;-84
2021/03/14 13:01:55;;;;;;;;;;;;;;;;;;;;;
2021/03/14 13:04:35;;;;;;;6.80;2.55;;;8.60;99.90;;;;;;4864707;29;20061;-83
2021/03/14 13:07:09;;;;;;;6.53;2.50;;;8.50;99.40;;;;;;4864285;29;20059;-82
2021/03/14 13:09:45;;;;;;;10.85;2.58;;;8.50;98.90;;;;;;4877683;29;20052;-84
2021/03/14 13:12:14;;;;;;;6.15;2.40;;;8.30;99.10;;;;;;4862965;29;20053;-85
2021/03/14 13:14:56;;;;;;;10.57;2.65;;;8.40;99.30;;;;;;4863148;29;20067;-83
2021/03/14 13:17:30;;;;;;;10.25;2.55;;;8.40;99.00;;;;;;4864424;29;20057;-84
2021/03/14 13:20:00;;;;;;;7.30;2.55;;;8.60;98.70;;;;;;4880915;29;20053;-84
2021/03/14 13:22:38;;;;;;;7.53;2.47;;;9.20;97.30;;;;;;4862863;29;20044;-84
2021/03/14 13:25:10;;;;;;;5.30;1.60;;;9.70;94.80;;;;;;4862464;29;20054;-84
2021/03/14 13:27:39;;;;;;;7.35;2.38;;;9.80;94.40;;;;;;4861905;29;20054;-83
2021/03/14 13:30:12;;;;;;;15.00;2.55;;;10.10;93.50;;;;;;4862406;29;20045;-85
2021/03/14 13:35:32;;;;;;;7.75;2.40;;;11.70;84.00;;;;;;4877240;29;20065;-84
2021/03/14 13:38:08;;;;;;;6.65;2.42;;;11.50;81.80;;;;;;4863646;29;20065;-84
2021/03/14 13:40:39;;;;;;;7.20;2.05;;;10.70;85.00;;;;;;4878807;29;20061;-85
2021/03/14 13:43:17;;;;;;;8.02;2.20;;;10.00;89.90;;;;;;4892230;29;20061;-85
2021/03/14 13:46:04;;;;;;;6.07;2.40;;;9.50;91.40;;;;;;4863537;29;20057;-85
2021/03/14 13:48:44;;;;;;;6.90;2.53;;;9.40;92.80;;;;;;4858682;29;20055;-85
2021/03/14 13:51:18;;;;;;;7.95;2.45;;;9.40;92.80;;;;;;4864643;29;20041;-84
2021/03/14 13:53:56;;;;;;;10.95;2.72;;;9.20;93.30;;;;;;4849073;29;20053;-80
2021/03/14 13:56:42;;;;;;;4.88;2.42;;;9.10;94.60;;;;;;4866522;29;20080;-84
2021/03/14 13:59:15;;;;;;;7.72;2.60;;;9.50;93.70;;;;;;4863630;29;20053;-85
2021/03/14 14:01:51;;;;;;;8.60;2.92;;;10.20;91.50;;;;;;4879543;29;20067;-85
2021/03/14 14:04:32;;;;;;;6.68;2.78;;;10.10;91.10;;;;;;4859074;29;20057;-80
2021/03/14 14:07:00;;;;;;;10.52;2.92;;;9.90;94.00;;;;;;4872931;29;20065;-82
2021/03/14 14:09:29;;;;;;;5.57;2.38;;;10.00;91.20;;;;;;4868615;29;20468;-81
2021/03/14 14:11:58;;;;;;;6.80;2.60;;;10.30;90.30;;;;;;4890778;29;20072;-82
2021/03/14 14:14:26;;;;;;;9.85;3.30;;;10.50;87.40;;;;;;4874371;29;20068;-82
2021/03/14 14:17:06;;;;;;;8.15;2.92;;;10.40;88.40;;;;;;4869732;29;20060;-81
2021/03/14 14:19:35;;;;;;;11.55;3.38;;;10.40;87.30;;;;;;4871123;29;20049;-82
2021/03/14 14:22:05;;;;;;;7.13;2.88;;;10.10;87.10;;;;;;4876401;29;20064;-82
2021/03/14 14:24:33;;;;;;;10.38;2.92;;;10.30;85.40;;;;;;4861038;29;20053;-81
2021/03/14 14:27:10;;;;;;;9.18;2.00;;;10.70;84.10;;;;;;4861052;29;20057;-81
2021/03/14 14:29:40;;;;;;;6.10;2.63;;;11.80;77.80;;;;;;4891770;29;20068;-81
2021/03/14 14:32:10;;;;;;;7.45;2.47;;;12.90;71.30;;;;;;4890462;29;20061;-82
2021/03/14 14:34:44;;;;;;;8.38;2.88;;;13.60;66.00;;;;;;4891637;29;20053;-84
2021/03/14 14:37:22;;;;;;;7.75;2.33;;;13.30;65.20;;;;;;4877909;29;20072;-83
2021/03/14 14:39:55;;;;;;;9.85;3.17;;;12.90;65.60;;;;;;4879030;29;20060;-81
2021/03/14 14:42:25;;;;;;;4.55;2.28;;;12.10;68.10;;;;;;4879858;29;20049;-82
2021/03/14 14:44:56;;;;;;;5.93;3.30;;;11.60;71.10;;;;;;4894457;29;20065;-82
2021/03/14 14:47:29;;;;;;;6.95;2.40;;;11.70;71.90;;;;;;4880082;29;20068;-82
2021/03/14 14:49:56;;;;;;;14.35;2.72;;;11.50;73.70;;;;;;4893671;29;20049;-79
2021/03/14 14:52:28;;;;;;;8.75;2.72;;;12.50;71.50;;;;;;4896621;29;20065;-83
2021/03/14 14:54:55;;;;;;;11.05;2.63;;;14.00;65.10;;;;;;4897705;29;20063;-82
2021/03/14 14:57:25;;;;;;;5.43;2.35;;;14.90;60.50;;;;;;4898545;29;20118;-82
2021/03/14 14:59:52;;;;;;;5.88;2.20;;;15.00;56.90;;;;;;4897450;29;20049;-83
2021/03/14 15:02:24;;;;;;;7.03;2.37;;;14.60;57.80;;;;;;4895344;29;20067;-80
2021/03/14 15:04:54;;;;;;;5.35;2.30;;;14.10;58.60;;;;;;4894202;29;20057;-81
2021/03/14 15:07:23;;;;;;;7.22;2.28;;;13.80;60.40;;;;;;4899031;29;20061;-83
2021/03/14 15:09:51;;;;;;;13.10;2.92;;;13.80;59.90;;;;;;4898034;29;20057;-81
2021/03/14 15:12:22;;;;;;;10.02;2.47;;;13.10;61.30;;;;;;4895568;29;20065;-82
2021/03/14 15:14:49;;;;;;;;;;;12.10;65.10;;;;;;4897362;29;20057;-80
2021/03/14 15:17:17;;;;;;;10.57;2.97;;;11.40;67.80;;;;;;4882671;29;19923;-81
2021/03/14 15:19:45;;;;;;;6.85;2.95;;;10.50;71.10;;;;;;4879924;29;20053;-80
2021/03/14 15:22:13;;;;;;;5.97;2.45;;;10.00;72.90;;;;;;4881435;29;20072;-81
2021/03/14 15:24:41;;;;;;;7.78;2.00;;;9.60;75.80;;;;;;4879846;29;20061;-79
2021/03/14 15:27:11;;;;;;;6.88;2.40;;;9.40;78.30;;;;;;4874820;29;20054;-83
2021/03/14 15:29:41;;;;;;;9.48;3.58;;;9.20;80.00;;;;;;4885503;29;20048;-82
2021/03/14 15:32:09;;;;;;;6.03;2.35;;;9.00;81.40;;;;;;4862666;29;20057;-82
2021/03/14 15:34:40;;;;;;;5.32;2.13;;;9.00;82.40;;;;;;4894637;29;20067;-81
2021/03/14 15:37:07;;;;;;;7.03;2.35;;;8.90;83.80;;;;;;4865302;29;20044;-81
2021/03/14 15:39:37;;;;;;;7.03;2.25;;;8.90;84.80;;;;;;4896061;29;20059;-82
2021/03/14 15:42:09;;;;;;;12.68;2.33;;;8.90;85.90;;;;;;4882236;29;20063;-81
2021/03/14 15:44:39;;;;;;;4.82;2.80;;;8.90;85.30;;;;;;4883876;29;20044;-82
2021/03/14 15:47:08;;;;;;;;;;;9.00;85.50;;;;;;4866314;29;20086;-81
2021/03/14 15:49:37;;;;;;;;;;;9.00;85.70;;;;;;4896358;29;19934;-82
2021/03/14 15:52:07;;;;;;;6.72;2.67;;;8.90;85.80;;;;;;4898133;29;19924;-81
2021/03/14 15:54:35;;;;;;;9.88;2.30;;;8.70;87.00;;;;;;4895611;29;20057;-81
2021/03/14 15:57:07;;;;;;;6.82;2.30;;;8.70;87.50;;;;;;4879900;29;20049;-81
2021/03/14 15:59:38;;;;;;;7.07;2.40;;;8.50;88.30;;;;;;4880369;29;20057;-80
2021/03/14 16:02:09;;;;;;;5.80;2.60;;;8.40;90.00;;;;;;4895809;29;20057;-81
2021/03/14 16:04:41;;;;;;;7.30;2.40;;;8.40;90.30;;;;;;4881376;29;20064;-81
2021/03/14 16:07:11;;;;;;;8.23;2.20;;;8.40;90.40;;;;;;4895501;29;20057;-82
2021/03/14 16:09:44;;;;;;;6.43;2.50;;;8.50;90.20;;;;;;4896151;29;20057;-81
2021/03/14 16:12:13;;;;;;;6.90;2.20;;;8.50;90.50;;;;;;4880477;29;20067;-79
2021/03/14 16:14:41;;;;;;;7.40;2.42;;;8.40;90.60;;;;;;4895372;29;20092;-80
2021/03/14 16:17:09;;;;;;;6.25;2.38;;;8.30;91.30;;;;;;4880233;29;20057;-81
2021/03/14 16:19:39;;;;;;;9.15;3.08;;;8.20;91.60;;;;;;4878102;29;20053;-81
2021/03/14 16:22:13;;;;;;;7.03;2.40;;;8.30;92.10;;;;;;4876745;29;20067;-80
2021/03/14 16:24:43;;;;;;;8.30;2.65;;;8.10;92.20;;;;;;4895161;29;20056;-82
2021/03/14 16:27:13;;;;;;;8.20;2.67;;;8.30;92.50;;;;;;4896309;29;20061;-80
2021/03/14 16:29:43;;;;;;;7.03;3.05;;;8.30;92.40;;;;;;4878803;29;20060;-81
2021/03/14 16:32:11;;;;;;;8.73;2.80;;;8.30;92.30;;;;;;4893815;29;20045;-80
2021/03/14 16:34:39;;;;;;;9.48;2.80;;;8.40;92.30;;;;;;4877272;29;20056;-81
2021/03/14 16:37:20;;;;;;;10.95;2.85;;;8.40;92.40;;;;;;4877223;29;20057;-80
2021/03/14 16:39:49;;;;;;;13.43;2.97;;;8.30;92.60;;;;;;4877029;29;20071;-79
2021/03/14 16:42:18;;;;;;;;;;;8.40;92.90;;;;;;4897026;29;20071;-84
2021/03/14 16:44:49;;;;;;;6.82;2.88;;;8.20;93.20;;;;;;4883544;29;20325;-80
2021/03/14 16:47:17;;;;;;;12.55;3.80;;;8.20;93.50;;;;;;4876777;29;20474;-81
2021/03/14 16:49:44;;;;;;;14.52;5.70;;;8.00;93.90;;;;;;4876604;29;20067;-82
2021/03/14 16:52:15;;;;;;;8.20;3.10;;;8.00;94.40;;;;;;4875990;29;20057;-81
2021/03/14 16:54:44;;;;;;;9.68;2.67;;;8.00;94.70;;;;;;4879479;29;20061;-81
2021/03/14 16:57:20;;;;;;;;;;;7.80;95.30;;;;;;4882014;29;20067;-83
2021/03/14 16:59:49;;;;;;;4.00;1.92;;;7.80;95.50;;;;;;4894700;29;19934;-81
2021/03/14 17:02:33;;;;;;;;;;;;;;;;;;;;;
2021/03/14 17:05:08;;;;;;;5.60;2.92;;;7.80;95.30;;;;;;4881346;29;20368;-82
2021/03/14 17:07:36;;;;;;;6.20;2.30;;;7.80;95.30;;;;;;4882196;29;20065;-81
2021/03/14 17:10:09;;;;;;;8.40;2.60;;;7.70;95.70;;;;;;4897543;29;20059;-83
2021/03/14 17:12:40;;;;;;;5.47;1.73;;;7.70;96.00;;;;;;4886834;29;20047;-82
2021/03/14 17:15:10;;;;;;;4.63;2.25;;;7.80;95.40;;;;;;4885025;29;20069;-81
2021/03/14 17:17:38;;;;;;;12.82;2.40;;;7.60;95.50;;;;;;4887867;29;20053;-81
2021/03/14 17:20:11;;;;;;;8.30;2.85;;;7.70;95.30;;;;;;4901812;29;20071;-81
2021/03/14 17:22:39;;;;;;;3.15;1.35;;;7.70;95.30;;;;;;4886634;29;20051;-81
2021/03/14 17:25:12;;;;;;;5.55;2.33;;;7.70;95.40;;;;;;4886200;29;20045;-80
2021/03/14 17:27:42;;;;;;;5.43;1.80;;;7.60;95.70;;;;;;4882822;29;20052;-80
2021/03/14 17:30:17;;;;;;;6.88;2.03;;;7.50;96.20;;;;;;4881026;29;20536;-83
2021/03/14 17:32:47;;;;;;;10.23;2.95;;;7.40;96.60;;;;;;4893058;29;20057;-81
2021/03/14 17:35:16;;;;;;;7.80;2.15;;;7.40;96.90;;;;;;4877301;29;20056;-81
2021/03/14 17:37:48;;;;;;;4.10;1.75;;;7.40;96.90;;;;;;4893245;29;20061;-81
2021/03/14 17:40:23;;;;;;;6.43;2.30;;;7.50;96.50;;;;;;4895589;29;20057;-81
2021/03/14 17:42:53;;;;;;;4.00;1.88;;;7.50;96.50;;;;;;4894343;29;20056;-81
2021/03/14 17:45:21;;;;;;;6.57;2.33;;;7.50;96.70;;;;;;4892745;29;20064;-81
2021/03/14 17:47:55;;;;;;;5.95;2.75;;;7.50;97.10;;;;;;4894397;29;20061;-81
2021/03/14 17:50:27;;;;;;;6.28;2.17;;;7.40;97.50;;;;;;4880264;29;20503;-83
2021/03/14 17:52:56;;;;;;;7.45;2.20;;;7.30;98.00;;;;;;4879305;29;20053;-80
2021/03/14 17:55:26;;;;;;;7.43;2.70;;;7.40;98.30;;;;;;4877806;29;20061;-81
2021/03/14 17:57:54;;;;;;;6.68;2.10;;;7.40;98.60;;;;;;4880392;29;20060;-81
2021/03/14 18:00:25;;;;;;;4.82;2.30;;;7.40;98.50;;;;;;4894834;29;20067;-82
2021/03/14 18:02:57;;;;;;;5.35;2.30;;;7.30;98.80;;;;;;4892044;29;20063;-83
2021/03/14 18:05:28;;;;;;;4.43;2.30;;;7.30;99.40;;;;;;4875404;29;20057;-82
2021/03/14 18:08:09;;;;;;;5.57;2.22;;;7.30;99.70;;;;;;4875540;29;20052;-82
2021/03/14 18:10:41;;;;;;;6.80;2.00;;;7.30;99.80;;;;;;4878671;29;20065;-83
2021/03/14 18:13:23;;;;;;;7.90;2.58;;;7.20;99.90;;;;;;4884237;29;20063;-83
2021/03/14 18:16:03;;;;;;;6.60;2.40;;;7.00;99.90;;;;;;4895622;29;20071;-82
2021/03/14 18:18:39;;;;;;;;;;;7.00;99.90;;;;;;4878847;29;20071;-83
2021/03/14 18:21:07;;;;;;;3.60;1.80;;;7.00;99.90;;;;;;4879946;29;19923;-84
2021/03/14 18:23:38;;;;;;;6.30;2.10;;;6.90;99.90;;;;;;4895186;29;20057;-83
2021/03/14 18:26:27;;;;;;;7.45;1.95;;;6.80;99.90;;;;;;4897108;29;20055;-83
2021/03/14 18:28:59;;;;;;;5.80;2.50;;;6.80;99.90;;;;;;4895668;29;20053;-83
2021/03/14 18:31:28;;;;;;;5.25;2.25;;;6.80;99.90;;;;;;4892817;29;20064;-82
2021/03/14 18:33:55;;;;;;;6.10;2.63;;;6.70;99.90;;;;;;4889835;29;20057;-82
2021/03/14 18:36:25;;;;;;;4.22;1.65;;;6.70;99.90;;;;;;4890872;29;20056;-82
2021/03/14 18:38:55;;;;;;;7.43;2.40;;;6.60;99.90;;;;;;4873044;29;20068;-83
2021/03/14 18:41:23;;;;;;;5.15;2.47;;;6.50;99.90;;;;;;4875695;29;20057;-82
2021/03/14 18:43:59;;;;;;;9.15;2.30;;;6.40;99.90;;;;;;4872998;29;20065;-82
2021/03/14 18:46:27;;;;;;;6.40;2.58;;;6.40;99.90;;;;;;4875424;29;20057;-82
2021/03/14 18:48:55;;;;;;;7.18;2.85;;;6.30;99.90;;;;;;4859484;29;20084;-82
2021/03/14 18:51:25;;;;;;;7.07;2.03;;;6.30;99.90;;;;;;4872496;29;20057;-82
2021/03/14 18:53:56;;;;;;;5.30;2.38;;;6.20;99.90;;;;;;4872673;29;20053;-81
2021/03/14 18:56:29;;;;;;;8.68;2.40;;;6.10;99.90;;;;;;4872643;29;20053;-82
2021/03/14 18:59:08;;;;;;;5.78;2.30;;;6.10;99.90;;;;;;4856105;29;20049;-82
2021/03/14 19:01:37;;;;;;;5.75;1.88;;;6.10;99.90;;;;;;4854396;29;20064;-82
2021/03/14 19:04:06;;;;;;;5.18;2.38;;;6.00;99.90;;;;;;4855019;29;20072;-83
2021/03/14 19:06:44;;;;;;;5.80;2.40;;;5.90;99.90;;;;;;4855288;29;20361;-83
2021/03/14 19:09:14;;;;;;;5.53;1.77;;;5.80;99.90;;;;;;4872456;29;20060;-83
2021/03/14 19:11:42;;;;;;;6.25;2.63;;;5.80;99.90;;;;;;4870131;29;20060;-83
2021/03/14 19:14:15;;;;;;;11.13;2.60;;;5.70;99.90;;;;;;4869963;29;20053;-83
2021/03/14 19:16:50;;;;;;;7.43;2.53;;;5.60;99.90;;;;;;4869411;29;20068;-83
2021/03/14 19:19:19;;;;;;;5.85;2.42;;;5.70;99.90;;;;;;4854968;29;20120;-83
2021/03/14 19:21:49;;;;;;;7.45;2.67;;;5.60;99.90;;;;;;4857289;29;20068;-83
2021/03/14 19:24:22;;;;;;;4.93;2.63;;;5.50;99.90;;;;;;4857904;29;20065;-83
2021/03/14 19:26:49;;;;;;;6.35;2.67;;;5.60;99.90;;;;;;4855202;29;20053;-83
2021/03/14 19:29:21;;;;;;;4.55;2.33;;;5.60;99.90;;;;;;4854331;29;20070;-83
2021/03/14 19:31:50;;;;;;;6.32;2.38;;;5.50;99.90;;;;;;4870734;29;20050;-83
2021/03/14 19:34:21;;;;;;;7.65;2.60;;;5.50;99.90;;;;;;4864678;29;20044;-82
2021/03/14 19:36:50;;;;;;;10.25;3.45;;;5.40;99.90;;;;;;4872216;29;20061;-83
2021/03/14 19:39:20;;;;;;;4.25;2.42;;;5.40;99.90;;;;;;4892445;29;20060;-83
2021/03/14 19:41:53;;;;;;;4.60;2.53;;;5.30;99.90;;;;;;4891550;29;20045;-83
2021/03/14 19:44:22;;;;;;;7.43;2.28;;;5.30;99.90;;;;;;4874845;29;20052;-82
2021/03/14 19:46:49;;;;;;;8.00;2.53;;;5.20;99.90;;;;;;4889902;29;20073;-83
2021/03/14 19:49:20;;;;;;;6.57;2.67;;;5.20;99.90;;;;;;4888625;29;20072;-83
2021/03/14 19:51:51;;;;;;;6.35;2.65;;;5.20;99.90;;;;;;4894074;29;20068;-83
2021/03/14 19:54:18;;;;;;;4.22;1.42;;;5.10;99.90;;;;;;4873323;29;20060;-83
2021/03/14 19:56:50;;;;;;;6.43;2.25;;;5.10;99.90;;;;;;4874119;29;20392;-83
2021/03/14 19:59:19;;;;;;;5.43;2.47;;;5.10;99.90;;;;;;4891469;29;20081;-83
2021/03/14 20:01:53;;;;;;;5.95;2.50;;;5.00;99.90;;;;;;4891620;29;20060;-83